sensor_id;sensor_type;location;lat;lon;timestamp;temperature;humidity
32348;DHT22;18821;44.800;10.326;2022-10-19T00:01:20;16.70;99.90
32348;DHT22;18821;44.800;10.326;2022-10-19T00:03:49;16.70;99.90
32348;DHT22;18821;44.800;10.326;2022-10-19T00:06:20;16.70;99.90
32348;DHT22;18821;44.800;10.326;2022-10-19T00:11:27;16.70;99.90
32348;DHT22;18821;44.800;10.326;2022-10-19T00:13:55;16.60;99.90
32348;DHT22;18821;44.800;10.326;2022-10-19T00:16:22;16.60;99.90
32348;DHT22;18821;44.800;10.326;2022-10-19T00:18:48;16.60;99.90
32348;DHT22;18821;44.800;10.326;2022-10-19T00:21:17;16.60;99.90
32348;DHT22;18821;44.800;10.326;2022-10-19T00:23:43;16.60;99.90
32348;DHT22;18821;44.800;10.326;2022-10-19T00:26:10;16.50;99.90
32348;DHT22;18821;44.800;10.326;2022-10-19T00:28:36;16.60;99.90
32348;DHT22;18821;44.800;10.326;2022-10-19T00:31:04;16.50;99.90
32348;DHT22;18821;44.800;10.326;2022-10-19T00:33:31;16.50;99.90
32348;DHT22;18821;44.800;10.326;2022-10-19T00:35:57;16.50;99.90
32348;DHT22;18821;44.800;10.326;2022-10-19T00:38:23;16.50;99.90
32348;DHT22;18821;44.800;10.326;2022-10-19T00:40:49;16.50;99.90
32348;DHT22;18821;44.800;10.326;2022-10-19T00:43:18;16.40;99.90
32348;DHT22;18821;44.800;10.326;2022-10-19T00:45:44;16.40;99.90
32348;DHT22;18821;44.800;10.326;2022-10-19T00:48:13;16.30;99.90
32348;DHT22;18821;44.800;10.326;2022-10-19T00:50:40;16.40;99.90
32348;DHT22;18821;44.800;10.326;2022-10-19T00:53:07;16.30;99.90
32348;DHT22;18821;44.800;10.326;2022-10-19T00:55:33;16.30;99.90
32348;DHT22;18821;44.800;10.326;2022-10-19T00:58:00;16.30;99.90
32348;DHT22;18821;44.800;10.326;2022-10-19T01:00:27;16.20;99.90
32348;DHT22;18821;44.800;10.326;2022-10-19T01:02:53;16.20;99.90
32348;DHT22;18821;44.800;10.326;2022-10-19T01:05:19;16.20;99.90
32348;DHT22;18821;44.800;10.326;2022-10-19T01:07:45;16.20;99.90
32348;DHT22;18821;44.800;10.326;2022-10-19T01:10:11;16.20;99.90
32348;DHT22;18821;44.800;10.326;2022-10-19T01:18:35;16.20;99.90
32348;DHT22;18821;44.800;10.326;2022-10-19T01:21:24;16.20;99.90
32348;DHT22;18821;44.800;10.326;2022-10-19T01:32:51;16.10;99.90
32348;DHT22;18821;44.800;10.326;2022-10-19T01:35:00;16.00;99.90
32348;DHT22;18821;44.800;10.326;2022-10-19T01:42:34;16.00;99.90
32348;DHT22;18821;44.800;10.326;2022-10-19T01:47:41;16.00;99.90
32348;DHT22;18821;44.800;10.326;2022-10-19T01:50:21;16.00;99.90
32348;DHT22;18821;44.800;10.326;2022-10-19T01:52:50;16.00;99.90
32348;DHT22;18821;44.800;10.326;2022-10-19T01:55:18;16.00;99.90
32348;DHT22;18821;44.800;10.326;2022-10-19T01:57:52;15.90;99.90
32348;DHT22;18821;44.800;10.326;2022-10-19T02:00:21;15.90;99.90
32348;DHT22;18821;44.800;10.326;2022-10-19T02:02:50;15.90;99.90
32348;DHT22;18821;44.800;10.326;2022-10-19T02:05:18;16.00;99.90
32348;DHT22;18821;44.800;10.326;2022-10-19T02:07:48;15.90;99.90
32348;DHT22;18821;44.800;10.326;2022-10-19T02:10:15;15.90;99.90
32348;DHT22;18821;44.800;10.326;2022-10-19T02:12:42;15.90;99.90
32348;DHT22;18821;44.800;10.326;2022-10-19T02:15:10;15.90;99.90
32348;DHT22;18821;44.800;10.326;2022-10-19T02:17:48;15.90;99.90
32348;DHT22;18821;44.800;10.326;2022-10-19T02:20:16;15.90;99.90
32348;DHT22;18821;44.800;10.326;2022-10-19T02:22:42;15.90;99.90
32348;DHT22;18821;44.800;10.326;2022-10-19T02:25:08;15.90;99.90
32348;DHT22;18821;44.800;10.326;2022-10-19T02:27:37;15.90;99.90
32348;DHT22;18821;44.800;10.326;2022-10-19T02:30:04;15.90;99.90
32348;DHT22;18821;44.800;10.326;2022-10-19T02:32:32;15.90;99.90
32348;DHT22;18821;44.800;10.326;2022-10-19T02:34:58;15.90;99.90
32348;DHT22;18821;44.800;10.326;2022-10-19T02:37:24;15.90;99.90
32348;DHT22;18821;44.800;10.326;2022-10-19T02:39:49;15.90;99.90
32348;DHT22;18821;44.800;10.326;2022-10-19T02:42:23;16.00;99.90
32348;DHT22;18821;44.800;10.326;2022-10-19T02:45:07;15.90;99.90
32348;DHT22;18821;44.800;10.326;2022-10-19T02:47:46;15.90;99.90
32348;DHT22;18821;44.800;10.326;2022-10-19T02:50:13;15.80;99.90
32348;DHT22;18821;44.800;10.326;2022-10-19T02:52:40;15.80;99.90
32348;DHT22;18821;44.800;10.326;2022-10-19T02:55:06;15.80;99.90
32348;DHT22;18821;44.800;10.326;2022-10-19T02:57:33;15.80;99.90
32348;DHT22;18821;44.800;10.326;2022-10-19T02:59:59;15.80;99.90
32348;DHT22;18821;44.800;10.326;2022-10-19T03:02:25;15.80;99.90
32348;DHT22;18821;44.800;10.326;2022-10-19T03:04:51;15.80;99.90
32348;DHT22;18821;44.800;10.326;2022-10-19T03:07:19;15.80;99.90
32348;DHT22;18821;44.800;10.326;2022-10-19T03:09:45;15.70;99.90
32348;DHT22;18821;44.800;10.326;2022-10-19T03:12:12;15.80;99.90
32348;DHT22;18821;44.800;10.326;2022-10-19T03:14:38;15.80;99.90
32348;DHT22;18821;44.800;10.326;2022-10-19T03:17:04;15.80;99.90
32348;DHT22;18821;44.800;10.326;2022-10-19T03:19:31;15.70;99.90
32348;DHT22;18821;44.800;10.326;2022-10-19T03:21:57;15.80;99.90
32348;DHT22;18821;44.800;10.326;2022-10-19T03:24:23;15.70;99.90
32348;DHT22;18821;44.800;10.326;2022-10-19T03:26:49;15.70;99.90
32348;DHT22;18821;44.800;10.326;2022-10-19T03:29:15;15.70;99.90
32348;DHT22;18821;44.800;10.326;2022-10-19T03:31:40;15.70;99.90
32348;DHT22;18821;44.800;10.326;2022-10-19T03:34:06;15.70;99.90
32348;DHT22;18821;44.800;10.326;2022-10-19T03:36:39;15.70;99.90
32348;DHT22;18821;44.800;10.326;2022-10-19T03:39:13;15.70;99.90
32348;DHT22;18821;44.800;10.326;2022-10-19T03:41:39;15.70;99.90
32348;DHT22;18821;44.800;10.326;2022-10-19T03:44:07;15.60;99.90
32348;DHT22;18821;44.800;10.326;2022-10-19T03:46:34;15.70;99.90
32348;DHT22;18821;44.800;10.326;2022-10-19T03:49:01;15.70;99.90
32348;DHT22;18821;44.800;10.326;2022-10-19T03:51:28;15.60;99.90
32348;DHT22;18821;44.800;10.326;2022-10-19T03:53:57;15.60;99.90
32348;DHT22;18821;44.800;10.326;2022-10-19T03:56:25;15.70;99.90
32348;DHT22;18821;44.800;10.326;2022-10-19T03:58:54;15.60;99.90
32348;DHT22;18821;44.800;10.326;2022-10-19T04:01:26;15.60;99.90
32348;DHT22;18821;44.800;10.326;2022-10-19T04:03:56;15.60;99.90
32348;DHT22;18821;44.800;10.326;2022-10-19T04:06:28;15.60;99.90
32348;DHT22;18821;44.800;10.326;2022-10-19T04:08:55;15.60;99.90
32348;DHT22;18821;44.800;10.326;2022-10-19T04:11:24;15.60;99.90
32348;DHT22;18821;44.800;10.326;2022-10-19T04:13:51;15.60;99.90
32348;DHT22;18821;44.800;10.326;2022-10-19T04:16:19;15.60;99.90
32348;DHT22;18821;44.800;10.326;2022-10-19T04:18:45;15.60;99.90
32348;DHT22;18821;44.800;10.326;2022-10-19T04:23:57;15.60;99.90
32348;DHT22;18821;44.800;10.326;2022-10-19T04:26:23;15.60;99.90
32348;DHT22;18821;44.800;10.326;2022-10-19T04:28:49;15.60;99.90
32348;DHT22;18821;44.800;10.326;2022-10-19T04:31:15;15.60;99.90
32348;DHT22;18821;44.800;10.326;2022-10-19T04:33:41;15.60;99.90
32348;DHT22;18821;44.800;10.326;2022-10-19T04:36:09;15.60;99.90
32348;DHT22;18821;44.800;10.326;2022-10-19T04:38:36;15.60;99.90
32348;DHT22;18821;44.800;10.326;2022-10-19T04:41:04;15.50;99.90
32348;DHT22;18821;44.800;10.326;2022-10-19T04:43:31;15.50;99.90
32348;DHT22;18821;44.800;10.326;2022-10-19T04:46:04;15.50;99.90
32348;DHT22;18821;44.800;10.326;2022-10-19T04:48:31;15.50;99.90
32348;DHT22;18821;44.800;10.326;2022-10-19T04:50:58;15.50;99.90
32348;DHT22;18821;44.800;10.326;2022-10-19T04:53:24;15.50;99.90
32348;DHT22;18821;44.800;10.326;2022-10-19T04:55:50;15.50;99.90
32348;DHT22;18821;44.800;10.326;2022-10-19T04:58:16;15.40;99.90
32348;DHT22;18821;44.800;10.326;2022-10-19T05:00:42;15.40;99.90
32348;DHT22;18821;44.800;10.326;2022-10-19T05:03:08;15.40;99.90
32348;DHT22;18821;44.800;10.326;2022-10-19T05:05:34;15.40;99.90
32348;DHT22;18821;44.800;10.326;2022-10-19T05:07:59;15.40;99.90
32348;DHT22;18821;44.800;10.326;2022-10-19T05:10:25;15.40;99.90
32348;DHT22;18821;44.800;10.326;2022-10-19T05:12:52;15.40;99.90
32348;DHT22;18821;44.800;10.326;2022-10-19T05:15:18;15.40;99.90
32348;DHT22;18821;44.800;10.326;2022-10-19T05:17:44;15.40;99.90
32348;DHT22;18821;44.800;10.326;2022-10-19T05:20:10;15.40;99.90
32348;DHT22;18821;44.800;10.326;2022-10-19T05:22:39;15.40;99.90
32348;DHT22;18821;44.800;10.326;2022-10-19T05:25:06;15.40;99.90
32348;DHT22;18821;44.800;10.326;2022-10-19T05:27:32;15.40;99.90
32348;DHT22;18821;44.800;10.326;2022-10-19T05:29:58;15.40;99.90
32348;DHT22;18821;44.800;10.326;2022-10-19T05:32:25;15.40;99.90
32348;DHT22;18821;44.800;10.326;2022-10-19T05:34:51;15.40;99.90
32348;DHT22;18821;44.800;10.326;2022-10-19T05:37:17;15.30;99.90
32348;DHT22;18821;44.800;10.326;2022-10-19T05:39:43;15.40;99.90
32348;DHT22;18821;44.800;10.326;2022-10-19T05:42:09;15.40;99.90
32348;DHT22;18821;44.800;10.326;2022-10-19T05:44:34;15.40;99.90
32348;DHT22;18821;44.800;10.326;2022-10-19T05:47:01;15.40;99.90
32348;DHT22;18821;44.800;10.326;2022-10-19T05:49:27;15.40;99.90
32348;DHT22;18821;44.800;10.326;2022-10-19T05:51:53;15.40;99.90
32348;DHT22;18821;44.800;10.326;2022-10-19T05:54:19;15.40;99.90
32348;DHT22;18821;44.800;10.326;2022-10-19T05:56:48;15.40;99.90
32348;DHT22;18821;44.800;10.326;2022-10-19T05:59:16;15.40;99.90
32348;DHT22;18821;44.800;10.326;2022-10-19T06:01:43;15.40;99.90
32348;DHT22;18821;44.800;10.326;2022-10-19T06:04:09;15.40;99.90
32348;DHT22;18821;44.800;10.326;2022-10-19T06:06:38;15.50;99.90
32348;DHT22;18821;44.800;10.326;2022-10-19T06:09:04;15.50;99.90
32348;DHT22;18821;44.800;10.326;2022-10-19T06:11:34;15.50;99.90
32348;DHT22;18821;44.800;10.326;2022-10-19T06:14:02;15.50;99.90
32348;DHT22;18821;44.800;10.326;2022-10-19T06:16:30;15.60;99.90
32348;DHT22;18821;44.800;10.326;2022-10-19T06:18:56;15.60;99.90
32348;DHT22;18821;44.800;10.326;2022-10-19T06:21:25;15.60;99.90
32348;DHT22;18821;44.800;10.326;2022-10-19T06:24:03;15.70;99.90
32348;DHT22;18821;44.800;10.326;2022-10-19T06:26:31;15.70;99.90
32348;DHT22;18821;44.800;10.326;2022-10-19T06:28:58;15.80;99.90
32348;DHT22;18821;44.800;10.326;2022-10-19T06:31:29;15.80;99.90
32348;DHT22;18821;44.800;10.326;2022-10-19T06:33:56;15.80;99.90
32348;DHT22;18821;44.800;10.326;2022-10-19T06:36:26;15.90;99.90
32348;DHT22;18821;44.800;10.326;2022-10-19T06:38:52;15.90;99.90
32348;DHT22;18821;44.800;10.326;2022-10-19T06:41:18;16.00;99.90
32348;DHT22;18821;44.800;10.326;2022-10-19T06:43:52;16.00;99.90
32348;DHT22;18821;44.800;10.326;2022-10-19T06:46:23;16.00;99.90
32348;DHT22;18821;44.800;10.326;2022-10-19T06:49:00;16.10;99.90
32348;DHT22;18821;44.800;10.326;2022-10-19T06:51:28;16.20;99.90
32348;DHT22;18821;44.800;10.326;2022-10-19T06:53:54;16.20;99.90
32348;DHT22;18821;44.800;10.326;2022-10-19T06:56:20;16.20;99.90
32348;DHT22;18821;44.800;10.326;2022-10-19T06:58:46;16.30;99.90
32348;DHT22;18821;44.800;10.326;2022-10-19T07:01:12;16.40;99.90
32348;DHT22;18821;44.800;10.326;2022-10-19T07:03:39;16.50;99.90
32348;DHT22;18821;44.800;10.326;2022-10-19T07:06:10;16.50;99.90
32348;DHT22;18821;44.800;10.326;2022-10-19T07:08:37;16.70;99.90
32348;DHT22;18821;44.800;10.326;2022-10-19T07:11:16;16.70;99.90
32348;DHT22;18821;44.800;10.326;2022-10-19T07:13:42;16.80;99.90
32348;DHT22;18821;44.800;10.326;2022-10-19T07:16:13;16.90;99.90
32348;DHT22;18821;44.800;10.326;2022-10-19T07:18:40;17.00;99.90
32348;DHT22;18821;44.800;10.326;2022-10-19T07:21:09;17.10;99.90
32348;DHT22;18821;44.800;10.326;2022-10-19T07:23:36;17.10;99.90
32348;DHT22;18821;44.800;10.326;2022-10-19T07:26:04;17.20;99.90
32348;DHT22;18821;44.800;10.326;2022-10-19T07:28:31;17.30;99.90
32348;DHT22;18821;44.800;10.326;2022-10-19T07:30:57;17.40;99.90
32348;DHT22;18821;44.800;10.326;2022-10-19T07:33:23;17.50;99.90
32348;DHT22;18821;44.800;10.326;2022-10-19T07:35:49;17.50;99.90
32348;DHT22;18821;44.800;10.326;2022-10-19T07:38:15;17.50;99.90
32348;DHT22;18821;44.800;10.326;2022-10-19T07:40:41;17.60;99.90
32348;DHT22;18821;44.800;10.326;2022-10-19T07:43:06;17.70;99.90
32348;DHT22;18821;44.800;10.326;2022-10-19T07:45:32;17.80;99.90
32348;DHT22;18821;44.800;10.326;2022-10-19T07:47:59;17.70;99.90
32348;DHT22;18821;44.800;10.326;2022-10-19T07:50:25;17.70;99.90
32348;DHT22;18821;44.800;10.326;2022-10-19T07:52:52;17.70;99.90
32348;DHT22;18821;44.800;10.326;2022-10-19T07:55:18;17.80;99.90
32348;DHT22;18821;44.800;10.326;2022-10-19T07:57:48;17.90;99.90
32348;DHT22;18821;44.800;10.326;2022-10-19T08:00:17;18.00;99.90
32348;DHT22;18821;44.800;10.326;2022-10-19T08:02:43;18.10;99.90
32348;DHT22;18821;44.800;10.326;2022-10-19T08:05:09;18.00;99.90
32348;DHT22;18821;44.800;10.326;2022-10-19T08:07:35;18.00;99.90
32348;DHT22;18821;44.800;10.326;2022-10-19T08:10:02;18.00;99.90
32348;DHT22;18821;44.800;10.326;2022-10-19T08:12:28;18.00;99.90
32348;DHT22;18821;44.800;10.326;2022-10-19T08:14:53;18.10;99.90
32348;DHT22;18821;44.800;10.326;2022-10-19T08:17:19;18.20;99.90
32348;DHT22;18821;44.800;10.326;2022-10-19T08:19:45;18.20;99.90
32348;DHT22;18821;44.800;10.326;2022-10-19T08:22:11;18.20;99.90
32348;DHT22;18821;44.800;10.326;2022-10-19T08:24:37;18.40;99.90
32348;DHT22;18821;44.800;10.326;2022-10-19T08:27:04;18.40;99.90
32348;DHT22;18821;44.800;10.326;2022-10-19T08:29:30;18.60;99.90
32348;DHT22;18821;44.800;10.326;2022-10-19T08:31:56;18.70;99.90
32348;DHT22;18821;44.800;10.326;2022-10-19T08:34:21;18.80;99.90
32348;DHT22;18821;44.800;10.326;2022-10-19T08:36:47;18.80;99.90
32348;DHT22;18821;44.800;10.326;2022-10-19T08:39:13;19.00;99.90
32348;DHT22;18821;44.800;10.326;2022-10-19T08:42:03;19.10;99.90
32348;DHT22;18821;44.800;10.326;2022-10-19T08:49:44;19.50;99.90
32348;DHT22;18821;44.800;10.326;2022-10-19T08:52:15;19.40;99.90
32348;DHT22;18821;44.800;10.326;2022-10-19T08:54:52;19.40;99.90
32348;DHT22;18821;44.800;10.326;2022-10-19T08:57:42;19.50;99.90
32348;DHT22;18821;44.800;10.326;2022-10-19T09:03:10;19.80;99.90
32348;DHT22;18821;44.800;10.326;2022-10-19T09:05:47;19.90;99.90
32348;DHT22;18821;44.800;10.326;2022-10-19T09:08:17;20.00;99.90
32348;DHT22;18821;44.800;10.326;2022-10-19T09:10:46;19.60;99.90
32348;DHT22;18821;44.800;10.326;2022-10-19T09:13:26;19.40;99.90
32348;DHT22;18821;44.800;10.326;2022-10-19T09:15:54;19.40;99.90
32348;DHT22;18821;44.800;10.326;2022-10-19T09:18:23;19.60;99.90
32348;DHT22;18821;44.800;10.326;2022-10-19T09:20:52;19.80;99.90
32348;DHT22;18821;44.800;10.326;2022-10-19T09:25:58;20.20;99.90
32348;DHT22;18821;44.800;10.326;2022-10-19T09:31:32;20.60;99.90
32348;DHT22;18821;44.800;10.326;2022-10-19T09:34:04;20.40;99.90
32348;DHT22;18821;44.800;10.326;2022-10-19T09:36:37;20.00;99.90
32348;DHT22;18821;44.800;10.326;2022-10-19T09:39:05;20.20;99.90
32348;DHT22;18821;44.800;10.326;2022-10-19T09:41:32;20.40;99.90
32348;DHT22;18821;44.800;10.326;2022-10-19T09:43:58;20.60;99.90
32348;DHT22;18821;44.800;10.326;2022-10-19T09:46:36;20.90;99.90
32348;DHT22;18821;44.800;10.326;2022-10-19T09:49:04;21.10;99.90
32348;DHT22;18821;44.800;10.326;2022-10-19T09:51:46;21.30;99.90
32348;DHT22;18821;44.800;10.326;2022-10-19T09:56:58;21.50;99.90
32348;DHT22;18821;44.800;10.326;2022-10-19T09:59:29;21.60;99.90
32348;DHT22;18821;44.800;10.326;2022-10-19T10:02:16;21.50;99.90
32348;DHT22;18821;44.800;10.326;2022-10-19T10:05:04;21.60;99.90
32348;DHT22;18821;44.800;10.326;2022-10-19T10:07:36;21.40;99.90
32348;DHT22;18821;44.800;10.326;2022-10-19T10:10:22;21.30;99.90
32348;DHT22;18821;44.800;10.326;2022-10-19T10:12:53;21.30;99.90
32348;DHT22;18821;44.800;10.326;2022-10-19T10:15:27;21.50;99.90
32348;DHT22;18821;44.800;10.326;2022-10-19T10:17:55;21.50;99.90
32348;DHT22;18821;44.800;10.326;2022-10-19T10:20:28;21.50;99.90
32348;DHT22;18821;44.800;10.326;2022-10-19T10:23:02;21.70;99.90
32348;DHT22;18821;44.800;10.326;2022-10-19T10:25:32;21.90;99.90
32348;DHT22;18821;44.800;10.326;2022-10-19T10:28:20;21.70;99.90
32348;DHT22;18821;44.800;10.326;2022-10-19T10:30:48;21.90;99.90
32348;DHT22;18821;44.800;10.326;2022-10-19T10:33:22;21.90;99.90
32348;DHT22;18821;44.800;10.326;2022-10-19T10:35:54;21.80;99.90
32348;DHT22;18821;44.800;10.326;2022-10-19T10:38:25;21.80;99.90
32348;DHT22;18821;44.800;10.326;2022-10-19T10:41:15;22.00;99.90
32348;DHT22;18821;44.800;10.326;2022-10-19T10:43:59;22.10;99.90
32348;DHT22;18821;44.800;10.326;2022-10-19T10:46:51;22.10;99.90
32348;DHT22;18821;44.800;10.326;2022-10-19T10:49:24;22.10;99.90
32348;DHT22;18821;44.800;10.326;2022-10-19T10:52:03;22.00;99.90
32348;DHT22;18821;44.800;10.326;2022-10-19T10:54:31;22.10;99.90
32348;DHT22;18821;44.800;10.326;2022-10-19T10:57:17;22.10;99.90
32348;DHT22;18821;44.800;10.326;2022-10-19T11:02:43;22.30;99.90
32348;DHT22;18821;44.800;10.326;2022-10-19T11:10:57;22.70;99.90
32348;DHT22;18821;44.800;10.326;2022-10-19T11:13:36;22.60;99.90
32348;DHT22;18821;44.800;10.326;2022-10-19T11:16:13;22.60;99.90
32348;DHT22;18821;44.800;10.326;2022-10-19T11:18:56;22.90;99.90
32348;DHT22;18821;44.800;10.326;2022-10-19T11:29:39;22.90;99.90
32348;DHT22;18821;44.800;10.326;2022-10-19T11:35:19;23.00;99.90
32348;DHT22;18821;44.800;10.326;2022-10-19T11:46:24;23.20;99.90
32348;DHT22;18821;44.800;10.326;2022-10-19T11:57:04;23.30;99.90
32348;DHT22;18821;44.800;10.326;2022-10-19T12:05:24;23.60;99.90
32348;DHT22;18821;44.800;10.326;2022-10-19T12:13:39;23.30;99.90
32348;DHT22;18821;44.800;10.326;2022-10-19T12:16:09;23.50;99.90
32348;DHT22;18821;44.800;10.326;2022-10-19T12:18:56;23.30;99.90
32348;DHT22;18821;44.800;10.326;2022-10-19T12:21:33;23.20;99.90
32348;DHT22;18821;44.800;10.326;2022-10-19T12:24:03;23.40;99.90
32348;DHT22;18821;44.800;10.326;2022-10-19T12:26:35;23.30;99.90
32348;DHT22;18821;44.800;10.326;2022-10-19T12:29:05;23.30;99.90
32348;DHT22;18821;44.800;10.326;2022-10-19T12:31:34;23.40;99.90
32348;DHT22;18821;44.800;10.326;2022-10-19T12:37:17;23.80;99.90
32348;DHT22;18821;44.800;10.326;2022-10-19T12:39:57;23.80;99.90
32348;DHT22;18821;44.800;10.326;2022-10-19T12:42:37;23.60;99.90
32348;DHT22;18821;44.800;10.326;2022-10-19T12:45:25;23.70;99.90
32348;DHT22;18821;44.800;10.326;2022-10-19T13:03:48;23.80;99.90
32348;DHT22;18821;44.800;10.326;2022-10-19T13:06:28;23.90;99.90
32348;DHT22;18821;44.800;10.326;2022-10-19T13:08:59;23.90;99.90
32348;DHT22;18821;44.800;10.326;2022-10-19T13:11:26;24.10;99.90
32348;DHT22;18821;44.800;10.326;2022-10-19T13:29:47;24.40;99.90
32348;DHT22;18821;44.800;10.326;2022-10-19T13:34:54;24.40;99.90
32348;DHT22;18821;44.800;10.326;2022-10-19T13:37:20;24.20;99.90
32348;DHT22;18821;44.800;10.326;2022-10-19T13:39:46;24.00;99.90
32348;DHT22;18821;44.800;10.326;2022-10-19T13:42:24;24.10;99.90
32348;DHT22;18821;44.800;10.326;2022-10-19T13:44:52;24.30;99.90
32348;DHT22;18821;44.800;10.326;2022-10-19T13:47:21;24.30;99.90
32348;DHT22;18821;44.800;10.326;2022-10-19T13:52:44;24.40;99.90
32348;DHT22;18821;44.800;10.326;2022-10-19T14:07:26;24.60;99.90
32348;DHT22;18821;44.800;10.326;2022-10-19T14:12:28;24.40;99.90
32348;DHT22;18821;44.800;10.326;2022-10-19T14:14:54;24.30;99.90
32348;DHT22;18821;44.800;10.326;2022-10-19T14:17:29;24.30;99.90
32348;DHT22;18821;44.800;10.326;2022-10-19T14:19:59;24.20;99.90
32348;DHT22;18821;44.800;10.326;2022-10-19T14:22:43;24.10;99.90
32348;DHT22;18821;44.800;10.326;2022-10-19T14:25:19;24.10;99.90
32348;DHT22;18821;44.800;10.326;2022-10-19T14:27:46;24.20;99.90
32348;DHT22;18821;44.800;10.326;2022-10-19T14:30:22;24.10;99.90
32348;DHT22;18821;44.800;10.326;2022-10-19T14:32:49;24.00;99.90
32348;DHT22;18821;44.800;10.326;2022-10-19T14:35:37;24.00;99.90
32348;DHT22;18821;44.800;10.326;2022-10-19T14:38:08;23.90;99.90
32348;DHT22;18821;44.800;10.326;2022-10-19T14:40:41;23.90;99.90
32348;DHT22;18821;44.800;10.326;2022-10-19T14:43:28;23.90;99.90
32348;DHT22;18821;44.800;10.326;2022-10-19T14:48:44;23.80;99.90
32348;DHT22;18821;44.800;10.326;2022-10-19T14:54:06;23.80;99.90
32348;DHT22;18821;44.800;10.326;2022-10-19T14:56:50;23.70;99.90
32348;DHT22;18821;44.800;10.326;2022-10-19T15:01:50;23.60;99.90
32348;DHT22;18821;44.800;10.326;2022-10-19T15:04:19;23.50;99.90
32348;DHT22;18821;44.800;10.326;2022-10-19T15:06:47;23.40;99.90
32348;DHT22;18821;44.800;10.326;2022-10-19T15:09:33;23.40;99.90
32348;DHT22;18821;44.800;10.326;2022-10-19T15:12:06;23.30;99.90
32348;DHT22;18821;44.800;10.326;2022-10-19T15:14:33;23.30;99.90
32348;DHT22;18821;44.800;10.326;2022-10-19T15:17:01;23.20;99.90
32348;DHT22;18821;44.800;10.326;2022-10-19T15:19:32;23.10;99.90
32348;DHT22;18821;44.800;10.326;2022-10-19T15:22:20;23.10;99.90
32348;DHT22;18821;44.800;10.326;2022-10-19T15:27:33;23.00;99.90
32348;DHT22;18821;44.800;10.326;2022-10-19T15:32:48;23.00;99.90
32348;DHT22;18821;44.800;10.326;2022-10-19T15:35:42;23.00;99.90
32348;DHT22;18821;44.800;10.326;2022-10-19T15:38:23;22.90;99.90
32348;DHT22;18821;44.800;10.326;2022-10-19T15:40:56;22.90;99.90
32348;DHT22;18821;44.800;10.326;2022-10-19T15:43:33;22.90;99.90
32348;DHT22;18821;44.800;10.326;2022-10-19T15:46:07;22.80;99.90
32348;DHT22;18821;44.800;10.326;2022-10-19T15:48:47;22.80;99.90
32348;DHT22;18821;44.800;10.326;2022-10-19T15:56:21;22.60;99.90
32348;DHT22;18821;44.800;10.326;2022-10-19T15:58:49;22.60;99.90
32348;DHT22;18821;44.800;10.326;2022-10-19T16:01:17;22.50;99.90
32348;DHT22;18821;44.800;10.326;2022-10-19T16:03:44;22.40;99.90
32348;DHT22;18821;44.800;10.326;2022-10-19T16:06:11;22.40;99.90
32348;DHT22;18821;44.800;10.326;2022-10-19T16:08:37;22.30;99.90
32348;DHT22;18821;44.800;10.326;2022-10-19T16:11:14;22.30;99.90
32348;DHT22;18821;44.800;10.326;2022-10-19T16:13:46;22.20;99.90
32348;DHT22;18821;44.800;10.326;2022-10-19T16:16:19;22.20;99.90
32348;DHT22;18821;44.800;10.326;2022-10-19T16:18:47;22.10;99.90
32348;DHT22;18821;44.800;10.326;2022-10-19T16:21:13;22.00;99.90
32348;DHT22;18821;44.800;10.326;2022-10-19T16:23:39;21.90;99.90
32348;DHT22;18821;44.800;10.326;2022-10-19T16:26:06;21.90;99.90
32348;DHT22;18821;44.800;10.326;2022-10-19T16:28:32;21.80;99.90
32348;DHT22;18821;44.800;10.326;2022-10-19T16:30:59;21.80;99.90
32348;DHT22;18821;44.800;10.326;2022-10-19T16:33:25;21.70;99.90
32348;DHT22;18821;44.800;10.326;2022-10-19T16:35:50;21.70;99.90
32348;DHT22;18821;44.800;10.326;2022-10-19T16:38:19;21.60;99.90
32348;DHT22;18821;44.800;10.326;2022-10-19T16:40:45;21.50;99.90
32348;DHT22;18821;44.800;10.326;2022-10-19T16:43:10;21.50;99.90
32348;DHT22;18821;44.800;10.326;2022-10-19T16:45:41;21.40;99.90
32348;DHT22;18821;44.800;10.326;2022-10-19T16:48:07;21.30;99.90
32348;DHT22;18821;44.800;10.326;2022-10-19T16:50:35;21.30;99.90
32348;DHT22;18821;44.800;10.326;2022-10-19T16:53:09;21.20;99.90
32348;DHT22;18821;44.800;10.326;2022-10-19T16:55:39;21.20;99.90
32348;DHT22;18821;44.800;10.326;2022-10-19T16:58:06;21.10;99.90
32348;DHT22;18821;44.800;10.326;2022-10-19T17:00:32;21.10;99.90
32348;DHT22;18821;44.800;10.326;2022-10-19T17:02:58;21.00;99.90
32348;DHT22;18821;44.800;10.326;2022-10-19T17:05:24;20.90;99.90
32348;DHT22;18821;44.800;10.326;2022-10-19T17:07:50;20.90;99.90
32348;DHT22;18821;44.800;10.326;2022-10-19T17:10:16;20.80;99.90
32348;DHT22;18821;44.800;10.326;2022-10-19T17:12:42;20.80;99.90
32348;DHT22;18821;44.800;10.326;2022-10-19T17:15:08;20.70;99.90
32348;DHT22;18821;44.800;10.326;2022-10-19T17:17:35;20.70;99.90
32348;DHT22;18821;44.800;10.326;2022-10-19T17:20:01;20.60;99.90
32348;DHT22;18821;44.800;10.326;2022-10-19T17:22:27;20.60;99.90
32348;DHT22;18821;44.800;10.326;2022-10-19T17:24:53;20.50;99.90
32348;DHT22;18821;44.800;10.326;2022-10-19T17:27:20;20.50;99.90
32348;DHT22;18821;44.800;10.326;2022-10-19T17:29:46;20.50;99.90
32348;DHT22;18821;44.800;10.326;2022-10-19T17:32:12;20.40;99.90
32348;DHT22;18821;44.800;10.326;2022-10-19T17:34:38;20.40;99.90
32348;DHT22;18821;44.800;10.326;2022-10-19T17:37:04;20.40;99.90
32348;DHT22;18821;44.800;10.326;2022-10-19T17:39:30;20.40;99.90
32348;DHT22;18821;44.800;10.326;2022-10-19T17:41:57;20.30;99.90
32348;DHT22;18821;44.800;10.326;2022-10-19T17:44:25;20.30;99.90
32348;DHT22;18821;44.800;10.326;2022-10-19T17:46:53;20.20;99.90
32348;DHT22;18821;44.800;10.326;2022-10-19T17:49:19;20.20;99.90
32348;DHT22;18821;44.800;10.326;2022-10-19T17:51:45;20.10;99.90
32348;DHT22;18821;44.800;10.326;2022-10-19T17:54:12;20.10;99.90
32348;DHT22;18821;44.800;10.326;2022-10-19T17:56:40;20.00;99.90
32348;DHT22;18821;44.800;10.326;2022-10-19T17:59:06;20.00;99.90
32348;DHT22;18821;44.800;10.326;2022-10-19T18:01:33;20.00;99.90
32348;DHT22;18821;44.800;10.326;2022-10-19T18:03:59;20.00;99.90
32348;DHT22;18821;44.800;10.326;2022-10-19T18:06:30;19.90;99.90
32348;DHT22;18821;44.800;10.326;2022-10-19T18:08:58;19.80;99.90
32348;DHT22;18821;44.800;10.326;2022-10-19T18:11:33;19.80;99.90
32348;DHT22;18821;44.800;10.326;2022-10-19T18:14:02;19.80;99.90
32348;DHT22;18821;44.800;10.326;2022-10-19T18:16:31;19.70;99.90